sensor_id;sensor_type;location;lat;lon;timestamp;pressure;altitude;pressure_sealevel;temperature;humidity
58967;BME280;44744;51.894;5.080;2022-08-19T00:00:38;101459.31;;;19.78;65.55
58967;BME280;44744;51.894;5.080;2022-08-19T00:01:40;101459.08;;;19.77;65.51
58967;BME280;44744;51.894;5.080;2022-08-19T00:02:40;101459.30;;;19.74;65.58
58967;BME280;44744;51.894;5.080;2022-08-19T00:03:41;101459.95;;;19.71;65.36
58967;BME280;44744;51.894;5.080;2022-08-19T00:04:41;101460.00;;;19.68;65.63
58967;BME280;44744;51.894;5.080;2022-08-19T00:05:42;101459.17;;;19.67;65.69
58967;BME280;44744;51.894;5.080;2022-08-19T00:06:44;101454.67;;;19.67;65.69
58967;BME280;44744;51.894;5.080;2022-08-19T00:07:46;101456.06;;;19.68;65.82
58967;BME280;44744;51.894;5.080;2022-08-19T00:08:46;101455.48;;;19.68;65.82
58967;BME280;44744;51.894;5.080;2022-08-19T00:09:47;101455.55;;;19.68;65.87
58967;BME280;44744;51.894;5.080;2022-08-19T00:10:47;101455.86;;;19.68;65.98
58967;BME280;44744;51.894;5.080;2022-08-19T00:11:47;101454.34;;;19.67;65.97
58967;BME280;44744;51.894;5.080;2022-08-19T00:12:48;101460.86;;;19.66;65.94
58967;BME280;44744;51.894;5.080;2022-08-19T00:13:48;101462.86;;;19.66;65.90
58967;BME280;44744;51.894;5.080;2022-08-19T00:14:48;101463.77;;;19.66;65.92
58967;BME280;44744;51.894;5.080;2022-08-19T00:15:49;101468.50;;;19.65;65.94
58967;BME280;44744;51.894;5.080;2022-08-19T00:16:49;101467.15;;;19.64;65.96
58967;BME280;44744;51.894;5.080;2022-08-19T00:17:49;101465.89;;;19.62;65.86
58967;BME280;44744;51.894;5.080;2022-08-19T00:18:50;101467.26;;;19.61;65.97
58967;BME280;44744;51.894;5.080;2022-08-19T00:19:50;101467.34;;;19.59;66.03
58967;BME280;44744;51.894;5.080;2022-08-19T00:20:51;101464.45;;;19.58;66.10
58967;BME280;44744;51.894;5.080;2022-08-19T00:21:51;101465.64;;;19.57;65.93
58967;BME280;44744;51.894;5.080;2022-08-19T00:22:52;101461.57;;;19.56;65.89
58967;BME280;44744;51.894;5.080;2022-08-19T00:23:56;101458.23;;;19.55;65.95
58967;BME280;44744;51.894;5.080;2022-08-19T00:24:57;101460.70;;;19.53;65.92
58967;BME280;44744;51.894;5.080;2022-08-19T00:25:57;101457.25;;;19.52;65.92
58967;BME280;44744;51.894;5.080;2022-08-19T00:26:58;101456.06;;;19.51;66.02
58967;BME280;44744;51.894;5.080;2022-08-19T00:27:58;101455.79;;;19.50;65.87
58967;BME280;44744;51.894;5.080;2022-08-19T00:28:59;101454.96;;;19.49;65.99
58967;BME280;44744;51.894;5.080;2022-08-19T00:29:59;101454.70;;;19.48;66.03
58967;BME280;44744;51.894;5.080;2022-08-19T00:31:00;101456.71;;;19.47;66.03
58967;BME280;44744;51.894;5.080;2022-08-19T00:32:00;101455.20;;;19.46;66.08
58967;BME280;44744;51.894;5.080;2022-08-19T00:33:01;101455.79;;;19.45;65.97
58967;BME280;44744;51.894;5.080;2022-08-19T00:34:01;101455.89;;;19.44;65.96
58967;BME280;44744;51.894;5.080;2022-08-19T00:35:02;101455.27;;;19.43;66.13
58967;BME280;44744;51.894;5.080;2022-08-19T00:36:07;101456.09;;;19.42;66.00
58967;BME280;44744;51.894;5.080;2022-08-19T00:37:07;101452.30;;;19.40;65.95
58967;BME280;44744;51.894;5.080;2022-08-19T00:38:07;101451.45;;;19.39;66.18
58967;BME280;44744;51.894;5.080;2022-08-19T00:39:08;101453.92;;;19.37;65.97
58967;BME280;44744;51.894;5.080;2022-08-19T00:40:10;101453.44;;;19.34;66.01
58967;BME280;44744;51.894;5.080;2022-08-19T00:41:16;101453.74;;;19.33;66.14
58967;BME280;44744;51.894;5.080;2022-08-19T00:42:19;101455.39;;;19.33;66.29
58967;BME280;44744;51.894;5.080;2022-08-19T00:43:22;101452.59;;;19.32;66.30
58967;BME280;44744;51.894;5.080;2022-08-19T00:44:26;101453.06;;;19.30;66.38
58967;BME280;44744;51.894;5.080;2022-08-19T00:45:29;101456.63;;;19.29;66.22
58967;BME280;44744;51.894;5.080;2022-08-19T00:46:29;101456.88;;;19.27;66.37
58967;BME280;44744;51.894;5.080;2022-08-19T00:47:30;101457.70;;;19.26;66.39
58967;BME280;44744;51.894;5.080;2022-08-19T00:48:31;101459.30;;;19.24;66.37
58967;BME280;44744;51.894;5.080;2022-08-19T00:49:37;101460.09;;;19.24;66.40
58967;BME280;44744;51.894;5.080;2022-08-19T00:50:41;101458.32;;;19.21;66.25
58967;BME280;44744;51.894;5.080;2022-08-19T00:51:42;101457.91;;;19.20;66.43
58967;BME280;44744;51.894;5.080;2022-08-19T00:52:47;101455.81;;;19.17;66.36
58967;BME280;44744;51.894;5.080;2022-08-19T00:53:48;101457.90;;;19.15;66.42
58967;BME280;44744;51.894;5.080;2022-08-19T00:54:50;101455.63;;;19.14;66.38
58967;BME280;44744;51.894;5.080;2022-08-19T00:55:53;101456.40;;;19.14;66.46
58967;BME280;44744;51.894;5.080;2022-08-19T00:56:54;101454.53;;;19.13;66.57
58967;BME280;44744;51.894;5.080;2022-08-19T00:57:58;101457.05;;;19.13;66.53
58967;BME280;44744;51.894;5.080;2022-08-19T00:59:02;101456.76;;;19.12;66.65
58967;BME280;44744;51.894;5.080;2022-08-19T01:00:06;101454.48;;;19.11;66.61
58967;BME280;44744;51.894;5.080;2022-08-19T01:01:08;101455.45;;;19.10;66.67
58967;BME280;44744;51.894;5.080;2022-08-19T01:02:08;101456.94;;;19.09;66.59
58967;BME280;44744;51.894;5.080;2022-08-19T01:03:12;101455.01;;;19.09;66.70
58967;BME280;44744;51.894;5.080;2022-08-19T01:04:13;101457.76;;;19.08;66.69
58967;BME280;44744;51.894;5.080;2022-08-19T01:05:18;101455.80;;;19.08;66.81
58967;BME280;44744;51.894;5.080;2022-08-19T01:06:20;101456.77;;;19.07;66.73
58967;BME280;44744;51.894;5.080;2022-08-19T01:07:20;101457.10;;;19.07;66.91
58967;BME280;44744;51.894;5.080;2022-08-19T01:08:21;101459.69;;;19.06;66.87
58967;BME280;44744;51.894;5.080;2022-08-19T01:09:22;101455.25;;;19.06;66.94
58967;BME280;44744;51.894;5.080;2022-08-19T01:10:27;101456.13;;;19.06;67.09
58967;BME280;44744;51.894;5.080;2022-08-19T01:11:33;101451.26;;;19.06;67.14
58967;BME280;44744;51.894;5.080;2022-08-19T01:12:34;101451.67;;;19.06;67.11
58967;BME280;44744;51.894;5.080;2022-08-19T01:13:35;101447.48;;;19.04;67.17
58967;BME280;44744;51.894;5.080;2022-08-19T01:14:37;101447.63;;;19.05;67.22
58967;BME280;44744;51.894;5.080;2022-08-19T01:15:45;101444.98;;;19.06;67.36
58967;BME280;44744;51.894;5.080;2022-08-19T01:16:46;101441.42;;;19.08;67.52
58967;BME280;44744;51.894;5.080;2022-08-19T01:17:48;101443.14;;;19.09;67.37
58967;BME280;44744;51.894;5.080;2022-08-19T01:18:49;101441.29;;;19.10;67.51
58967;BME280;44744;51.894;5.080;2022-08-19T01:19:49;101442.52;;;19.08;67.48
58967;BME280;44744;51.894;5.080;2022-08-19T01:20:50;101441.29;;;19.08;67.45
58967;BME280;44744;51.894;5.080;2022-08-19T01:21:58;101442.56;;;19.07;67.44
58967;BME280;44744;51.894;5.080;2022-08-19T01:23:01;101439.19;;;19.07;67.47
58967;BME280;44744;51.894;5.080;2022-08-19T01:24:02;101441.44;;;19.06;67.53
58967;BME280;44744;51.894;5.080;2022-08-19T01:25:03;101441.52;;;19.05;67.62
58967;BME280;44744;51.894;5.080;2022-08-19T01:26:04;101440.98;;;19.05;67.55
58967;BME280;44744;51.894;5.080;2022-08-19T01:27:05;101443.35;;;19.04;67.63
58967;BME280;44744;51.894;5.080;2022-08-19T01:28:06;101442.40;;;19.03;67.70
58967;BME280;44744;51.894;5.080;2022-08-19T01:29:07;101448.27;;;19.01;67.69
58967;BME280;44744;51.894;5.080;2022-08-19T01:30:08;101449.21;;;19.01;67.83
58967;BME280;44744;51.894;5.080;2022-08-19T01:31:13;101455.06;;;19.02;67.83
58967;BME280;44744;51.894;5.080;2022-08-19T01:32:18;101458.67;;;18.99;67.89
58967;BME280;44744;51.894;5.080;2022-08-19T01:33:19;101455.88;;;18.98;67.87
58967;BME280;44744;51.894;5.080;2022-08-19T01:34:20;101458.24;;;18.98;67.90
58967;BME280;44744;51.894;5.080;2022-08-19T01:35:21;101457.17;;;18.98;67.98
58967;BME280;44744;51.894;5.080;2022-08-19T01:36:24;101460.27;;;18.97;68.04
58967;BME280;44744;51.894;5.080;2022-08-19T01:37:25;101459.91;;;18.95;68.02
58967;BME280;44744;51.894;5.080;2022-08-19T01:38:26;101459.22;;;18.94;67.92
58967;BME280;44744;51.894;5.080;2022-08-19T01:39:27;101459.55;;;18.95;67.96
58967;BME280;44744;51.894;5.080;2022-08-19T01:40:30;101459.87;;;18.96;67.97
58967;BME280;44744;51.894;5.080;2022-08-19T01:41:32;101462.43;;;18.97;68.04
58967;BME280;44744;51.894;5.080;2022-08-19T01:42:33;101460.91;;;18.98;68.07
58967;BME280;44744;51.894;5.080;2022-08-19T01:43:34;101459.63;;;18.98;68.09
58967;BME280;44744;51.894;5.080;2022-08-19T01:44:34;101459.70;;;18.97;68.13
58967;BME280;44744;51.894;5.080;2022-08-19T01:45:35;101460.62;;;18.97;68.17
58967;BME280;44744;51.894;5.080;2022-08-19T01:46:36;101462.53;;;18.96;68.11
58967;BME280;44744;51.894;5.080;2022-08-19T01:47:36;101463.07;;;18.96;68.10
58967;BME280;44744;51.894;5.080;2022-08-19T01:48:40;101463.77;;;18.93;68.15
58967;BME280;44744;51.894;5.080;2022-08-19T01:49:41;101464.41;;;18.92;68.06
58967;BME280;44744;51.894;5.080;2022-08-19T01:50:42;101465.42;;;18.91;68.05
58967;BME280;44744;51.894;5.080;2022-08-19T01:51:42;101467.10;;;18.90;68.19
58967;BME280;44744;51.894;5.080;2022-08-19T01:52:43;101466.33;;;18.88;68.13
58967;BME280;44744;51.894;5.080;2022-08-19T01:53:48;101465.14;;;18.88;68.19
58967;BME280;44744;51.894;5.080;2022-08-19T01:54:49;101466.19;;;18.85;68.24
58967;BME280;44744;51.894;5.080;2022-08-19T01:55:49;101469.66;;;18.85;68.34
58967;BME280;44744;51.894;5.080;2022-08-19T01:56:51;101472.05;;;18.84;68.31
58967;BME280;44744;51.894;5.080;2022-08-19T01:57:56;101468.79;;;18.84;68.41
58967;BME280;44744;51.894;5.080;2022-08-19T01:59:00;101468.35;;;18.83;68.39
58967;BME280;44744;51.894;5.080;2022-08-19T02:00:05;101468.89;;;18.83;68.41
58967;BME280;44744;51.894;5.080;2022-08-19T02:01:07;101466.30;;;18.82;68.45
58967;BME280;44744;51.894;5.080;2022-08-19T02:02:07;101464.60;;;18.81;68.40
58967;BME280;44744;51.894;5.080;2022-08-19T02:03:07;101463.56;;;18.80;68.50
58967;BME280;44744;51.894;5.080;2022-08-19T02:04:08;101458.15;;;18.81;68.66
58967;BME280;44744;51.894;5.080;2022-08-19T02:05:09;101460.71;;;18.80;68.66
58967;BME280;44744;51.894;5.080;2022-08-19T02:06:10;101458.59;;;18.80;68.66
58967;BME280;44744;51.894;5.080;2022-08-19T02:07:11;101463.84;;;18.76;68.74
58967;BME280;44744;51.894;5.080;2022-08-19T02:08:12;101462.48;;;18.75;68.77
58967;BME280;44744;51.894;5.080;2022-08-19T02:09:12;101463.21;;;18.75;68.73
58967;BME280;44744;51.894;5.080;2022-08-19T02:10:17;101463.54;;;18.75;68.63
58967;BME280;44744;51.894;5.080;2022-08-19T02:11:27;101469.52;;;18.75;68.76
58967;BME280;44744;51.894;5.080;2022-08-19T02:12:28;101472.52;;;18.73;68.72
58967;BME280;44744;51.894;5.080;2022-08-19T02:13:28;101469.06;;;18.72;68.56
58967;BME280;44744;51.894;5.080;2022-08-19T02:14:29;101468.56;;;18.71;68.65
58967;BME280;44744;51.894;5.080;2022-08-19T02:15:29;101462.41;;;18.70;68.69
58967;BME280;44744;51.894;5.080;2022-08-19T02:16:29;101467.30;;;18.69;68.71
58967;BME280;44744;51.894;5.080;2022-08-19T02:17:30;101462.98;;;18.69;68.75
58967;BME280;44744;51.894;5.080;2022-08-19T02:18:30;101461.85;;;18.68;68.78
58967;BME280;44744;51.894;5.080;2022-08-19T02:19:31;101463.36;;;18.67;68.79
58967;BME280;44744;51.894;5.080;2022-08-19T02:20:31;101463.34;;;18.65;68.68
58967;BME280;44744;51.894;5.080;2022-08-19T02:21:32;101465.73;;;18.64;68.76
58967;BME280;44744;51.894;5.080;2022-08-19T02:22:33;101463.27;;;18.64;68.83
58967;BME280;44744;51.894;5.080;2022-08-19T02:23:33;101463.58;;;18.62;68.85
58967;BME280;44744;51.894;5.080;2022-08-19T02:24:33;101463.14;;;18.60;68.80
58967;BME280;44744;51.894;5.080;2022-08-19T02:25:34;101464.47;;;18.57;68.70
58967;BME280;44744;51.894;5.080;2022-08-19T02:26:34;101465.47;;;18.56;68.81
58967;BME280;44744;51.894;5.080;2022-08-19T02:27:34;101466.66;;;18.54;68.87
58967;BME280;44744;51.894;5.080;2022-08-19T02:28:35;101464.98;;;18.53;68.86
58967;BME280;44744;51.894;5.080;2022-08-19T02:29:35;101467.91;;;18.52;68.84
58967;BME280;44744;51.894;5.080;2022-08-19T02:30:36;101465.66;;;18.51;69.01
58967;BME280;44744;51.894;5.080;2022-08-19T02:31:36;101464.45;;;18.51;69.02
58967;BME280;44744;51.894;5.080;2022-08-19T02:32:36;101469.70;;;18.50;69.09
58967;BME280;44744;51.894;5.080;2022-08-19T02:33:37;101468.67;;;18.50;68.97
58967;BME280;44744;51.894;5.080;2022-08-19T02:34:37;101466.23;;;18.49;69.04
58967;BME280;44744;51.894;5.080;2022-08-19T02:35:41;101467.48;;;18.49;69.07
58967;BME280;44744;51.894;5.080;2022-08-19T02:36:41;101472.52;;;18.48;69.05
58967;BME280;44744;51.894;5.080;2022-08-19T02:37:42;101471.08;;;18.48;69.09
58967;BME280;44744;51.894;5.080;2022-08-19T02:38:44;101474.73;;;18.48;69.04
58967;BME280;44744;51.894;5.080;2022-08-19T02:39:45;101476.02;;;18.47;69.03
58967;BME280;44744;51.894;5.080;2022-08-19T02:40:50;101476.86;;;18.46;69.09
58967;BME280;44744;51.894;5.080;2022-08-19T02:41:50;101475.27;;;18.45;69.09
58967;BME280;44744;51.894;5.080;2022-08-19T02:42:51;101477.13;;;18.44;69.10
58967;BME280;44744;51.894;5.080;2022-08-19T02:43:51;101474.91;;;18.45;69.19
58967;BME280;44744;51.894;5.080;2022-08-19T02:44:51;101475.18;;;18.46;69.20
58967;BME280;44744;51.894;5.080;2022-08-19T02:45:52;101473.20;;;18.47;69.22
58967;BME280;44744;51.894;5.080;2022-08-19T02:46:53;101472.08;;;18.47;69.23
58967;BME280;44744;51.894;5.080;2022-08-19T02:47:53;101463.63;;;18.48;69.28
58967;BME280;44744;51.894;5.080;2022-08-19T02:48:57;101459.19;;;18.47;69.31
58967;BME280;44744;51.894;5.080;2022-08-19T02:49:58;101458.86;;;18.47;69.26
58967;BME280;44744;51.894;5.080;2022-08-19T02:50:58;101455.93;;;18.45;69.35
58967;BME280;44744;51.894;5.080;2022-08-19T02:51:58;101454.76;;;18.47;69.44
58967;BME280;44744;51.894;5.080;2022-08-19T02:52:58;101458.91;;;18.48;69.46
58967;BME280;44744;51.894;5.080;2022-08-19T02:53:59;101458.44;;;18.50;69.49
58967;BME280;44744;51.894;5.080;2022-08-19T02:54:59;101454.10;;;18.50;69.50
58967;BME280;44744;51.894;5.080;2022-08-19T02:56:00;101456.08;;;18.50;69.50
58967;BME280;44744;51.894;5.080;2022-08-19T02:57:00;101458.07;;;18.50;69.57
58967;BME280;44744;51.894;5.080;2022-08-19T02:58:00;101462.58;;;18.49;69.56
58967;BME280;44744;51.894;5.080;2022-08-19T02:59:02;101462.90;;;18.50;69.63
58967;BME280;44744;51.894;5.080;2022-08-19T03:00:06;101466.35;;;18.50;69.65
58967;BME280;44744;51.894;5.080;2022-08-19T03:01:07;101468.03;;;18.47;69.63
58967;BME280;44744;51.894;5.080;2022-08-19T03:02:07;101467.56;;;18.45;69.62
58967;BME280;44744;51.894;5.080;2022-08-19T03:03:07;101463.34;;;18.45;69.63
58967;BME280;44744;51.894;5.080;2022-08-19T03:04:10;101458.94;;;18.43;69.77
58967;BME280;44744;51.894;5.080;2022-08-19T03:05:11;101455.08;;;18.42;69.79
58967;BME280;44744;51.894;5.080;2022-08-19T03:06:14;101455.72;;;18.41;69.83
58967;BME280;44744;51.894;5.080;2022-08-19T03:07:15;101454.52;;;18.40;69.82
58967;BME280;44744;51.894;5.080;2022-08-19T03:08:19;101454.66;;;18.41;69.87
58967;BME280;44744;51.894;5.080;2022-08-19T03:09:19;101456.84;;;18.40;69.93
58967;BME280;44744;51.894;5.080;2022-08-19T03:10:20;101454.52;;;18.40;70.04
58967;BME280;44744;51.894;5.080;2022-08-19T03:11:23;101454.20;;;18.40;69.96
58967;BME280;44744;51.894;5.080;2022-08-19T03:12:24;101455.23;;;18.40;70.05
58967;BME280;44744;51.894;5.080;2022-08-19T03:13:25;101453.35;;;18.41;70.16
58967;BME280;44744;51.894;5.080;2022-08-19T03:14:25;101453.05;;;18.43;70.29
58967;BME280;44744;51.894;5.080;2022-08-19T03:15:25;101452.59;;;18.44;70.23
58967;BME280;44744;51.894;5.080;2022-08-19T03:16:29;101450.64;;;18.44;70.29
58967;BME280;44744;51.894;5.080;2022-08-19T03:17:30;101451.73;;;18.44;70.30
58967;BME280;44744;51.894;5.080;2022-08-19T03:18:30;101450.98;;;18.44;70.39
58967;BME280;44744;51.894;5.080;2022-08-19T03:19:31;101444.58;;;18.44;70.28
58967;BME280;44744;51.894;5.080;2022-08-19T03:20:31;101447.14;;;18.43;70.29
58967;BME280;44744;51.894;5.080;2022-08-19T03:21:33;101445.42;;;18.42;70.26
58967;BME280;44744;51.894;5.080;2022-08-19T03:22:33;101448.85;;;18.42;70.28
58967;BME280;44744;51.894;5.080;2022-08-19T03:23:34;101447.26;;;18.39;70.24
58967;BME280;44744;51.894;5.080;2022-08-19T03:24:34;101449.11;;;18.38;70.34
58967;BME280;44744;51.894;5.080;2022-08-19T03:25:43;101449.87;;;18.38;70.37
58967;BME280;44744;51.894;5.080;2022-08-19T03:26:47;101447.87;;;18.36;70.25
58967;BME280;44744;51.894;5.080;2022-08-19T03:27:48;101445.61;;;18.35;70.24
58967;BME280;44744;51.894;5.080;2022-08-19T03:28:48;101447.49;;;18.34;70.24
58967;BME280;44744;51.894;5.080;2022-08-19T03:29:49;101448.05;;;18.34;70.30
58967;BME280;44744;51.894;5.080;2022-08-19T03:31:19;101443.10;;;18.33;70.30
58967;BME280;44744;51.894;5.080;2022-08-19T03:32:20;101445.02;;;18.31;70.30
58967;BME280;44744;51.894;5.080;2022-08-19T03:33:20;101447.46;;;18.30;70.35
58967;BME280;44744;51.894;5.080;2022-08-19T03:34:23;101446.45;;;18.29;70.43
58967;BME280;44744;51.894;5.080;2022-08-19T03:35:24;101449.48;;;18.29;70.36
58967;BME280;44744;51.894;5.080;2022-08-19T03:36:26;101450.95;;;18.29;70.38
58967;BME280;44744;51.894;5.080;2022-08-19T03:37:27;101450.86;;;18.28;70.43
58967;BME280;44744;51.894;5.080;2022-08-19T03:38:28;101447.34;;;18.27;70.42
58967;BME280;44744;51.894;5.080;2022-08-19T03:39:28;101451.84;;;18.27;70.46
58967;BME280;44744;51.894;5.080;2022-08-19T03:40:28;101451.19;;;18.25;70.44
58967;BME280;44744;51.894;5.080;2022-08-19T03:41:33;101450.02;;;18.24;70.45
58967;BME280;44744;51.894;5.080;2022-08-19T03:42:36;101454.73;;;18.23;70.39
58967;BME280;44744;51.894;5.080;2022-08-19T03:43:38;101451.57;;;18.23;70.53
58967;BME280;44744;51.894;5.080;2022-08-19T03:44:39;101451.04;;;18.23;70.52
58967;BME280;44744;51.894;5.080;2022-08-19T03:45:39;101451.21;;;18.23;70.52
58967;BME280;44744;51.894;5.080;2022-08-19T03:46:39;101446.91;;;18.23;70.62
58967;BME280;44744;51.894;5.080;2022-08-19T03:47:39;101446.17;;;18.23;70.64
58967;BME280;44744;51.894;5.080;2022-08-19T03:48:41;101445.52;;;18.25;70.75
58967;BME280;44744;51.894;5.080;2022-08-19T03:49:43;101442.59;;;18.26;70.81
58967;BME280;44744;51.894;5.080;2022-08-19T03:50:43;101441.14;;;18.26;70.76
58967;BME280;44744;51.894;5.080;2022-08-19T03:51:45;101438.04;;;18.26;70.85
58967;BME280;44744;51.894;5.080;2022-08-19T03:52:50;101439.44;;;18.27;70.78
58967;BME280;44744;51.894;5.080;2022-08-19T03:53:52;101443.20;;;18.27;70.79
58967;BME280;44744;51.894;5.080;2022-08-19T03:54:53;101445.89;;;18.27;70.99
58967;BME280;44744;51.894;5.080;2022-08-19T03:55:54;101441.98;;;18.27;70.94
58967;BME280;44744;51.894;5.080;2022-08-19T03:56:56;101447.14;;;18.27;70.84
58967;BME280;44744;51.894;5.080;2022-08-19T03:57:56;101449.64;;;18.27;70.89
58967;BME280;44744;51.894;5.080;2022-08-19T03:58:57;101449.30;;;18.27;70.88
58967;BME280;44744;51.894;5.080;2022-08-19T03:59:58;101454.02;;;18.26;70.94
58967;BME280;44744;51.894;5.080;2022-08-19T04:00:58;101452.41;;;18.26;70.97
58967;BME280;44744;51.894;5.080;2022-08-19T04:02:02;101454.02;;;18.26;71.03
58967;BME280;44744;51.894;5.080;2022-08-19T04:03:03;101455.42;;;18.27;71.08
58967;BME280;44744;51.894;5.080;2022-08-19T04:04:05;101454.66;;;18.27;71.17
58967;BME280;44744;51.894;5.080;2022-08-19T04:05:05;101455.84;;;18.28;71.16
58967;BME280;44744;51.894;5.080;2022-08-19T04:06:17;101454.23;;;18.26;71.14
58967;BME280;44744;51.894;5.080;2022-08-19T04:07:18;101453.50;;;18.26;71.17
58967;BME280;44744;51.894;5.080;2022-08-19T04:08:18;101453.48;;;18.26;71.18
58967;BME280;44744;51.894;5.080;2022-08-19T04:09:19;101452.52;;;18.27;71.23
58967;BME280;44744;51.894;5.080;2022-08-19T04:10:20;101450.79;;;18.26;71.24
58967;BME280;44744;51.894;5.080;2022-08-19T04:11:23;101448.04;;;18.27;71.33
58967;BME280;44744;51.894;5.080;2022-08-19T04:12:24;101443.70;;;18.28;71.37
58967;BME280;44744;51.894;5.080;2022-08-19T04:13:24;101441.12;;;18.29;71.28
58967;BME280;44744;51.894;5.080;2022-08-19T04:14:28;101436.44;;;18.29;71.37
58967;BME280;44744;51.894;5.080;2022-08-19T04:15:29;101438.96;;;18.29;71.44
58967;BME280;44744;51.894;5.080;2022-08-19T04:16:29;101440.21;;;18.29;71.46
58967;BME280;44744;51.894;5.080;2022-08-19T04:17:30;101436.62;;;18.29;71.50
58967;BME280;44744;51.894;5.080;2022-08-19T04:18:30;101439.27;;;18.29;71.62
58967;BME280;44744;51.894;5.080;2022-08-19T04:19:32;101434.41;;;18.30;71.70
58967;BME280;44744;51.894;5.080;2022-08-19T04:20:45;101440.48;;;18.30;71.72
58967;BME280;44744;51.894;5.080;2022-08-19T04:21:49;101439.07;;;18.30;71.84
58967;BME280;44744;51.894;5.080;2022-08-19T04:22:50;101440.58;;;18.28;71.87
58967;BME280;44744;51.894;5.080;2022-08-19T04:23:50;101440.46;;;18.28;71.95
58967;BME280;44744;51.894;5.080;2022-08-19T04:24:50;101441.17;;;18.28;71.92
58967;BME280;44744;51.894;5.080;2022-08-19T04:25:51;101442.41;;;18.28;72.13
58967;BME280;44744;51.894;5.080;2022-08-19T04:26:51;101440.27;;;18.28;72.16
58967;BME280;44744;51.894;5.080;2022-08-19T04:27:52;101439.30;;;18.29;72.30
58967;BME280;44744;51.894;5.080;2022-08-19T04:28:53;101438.26;;;18.28;72.25
58967;BME280;44744;51.894;5.080;2022-08-19T04:29:54;101436.45;;;18.29;72.33
58967;BME280;44744;51.894;5.080;2022-08-19T04:30:55;101432.92;;;18.28;72.33
58967;BME280;44744;51.894;5.080;2022-08-19T04:31:56;101430.77;;;18.28;72.37
58967;BME280;44744;51.894;5.080;2022-08-19T04:32:57;101433.29;;;18.28;72.61
58967;BME280;44744;51.894;5.080;2022-08-19T04:33:59;101436.38;;;18.27;72.64
58967;BME280;44744;51.894;5.080;2022-08-19T04:34:59;101433.16;;;18.27;72.68
58967;BME280;44744;51.894;5.080;2022-08-19T04:35:59;101432.73;;;18.28;72.76
58967;BME280;44744;51.894;5.080;2022-08-19T04:37:00;101438.95;;;18.29;72.82
58967;BME280;44744;51.894;5.080;2022-08-19T04:38:00;101436.80;;;18.29;72.96
58967;BME280;44744;51.894;5.080;2022-08-19T04:39:04;101443.42;;;18.29;72.94
58967;BME280;44744;51.894;5.080;2022-08-19T04:40:09;101447.70;;;18.29;73.02
58967;BME280;44744;51.894;5.080;2022-08-19T04:41:13;101446.27;;;18.29;73.09
58967;BME280;44744;51.894;5.080;2022-08-19T04:42:17;101449.11;;;18.29;73.23
58967;BME280;44744;51.894;5.080;2022-08-19T04:43:20;101447.67;;;18.29;73.14
58967;BME280;44744;51.894;5.080;2022-08-19T04:44:21;101446.67;;;18.29;73.24
58967;BME280;44744;51.894;5.080;2022-08-19T04:45:22;101447.23;;;18.28;73.20
58967;BME280;44744;51.894;5.080;2022-08-19T04:46:22;101444.27;;;18.27;73.25
58967;BME280;44744;51.894;5.080;2022-08-19T04:47:22;101446.86;;;18.26;73.28
58967;BME280;44744;51.894;5.080;2022-08-19T04:48:23;101446.94;;;18.25;73.51
58967;BME280;44744;51.894;5.080;2022-08-19T04:49:24;101447.98;;;18.23;73.44
58967;BME280;44744;51.894;5.080;2022-08-19T04:50:26;101446.31;;;18.21;73.41
58967;BME280;44744;51.894;5.080;2022-08-19T04:51:26;101447.09;;;18.21;73.36
58967;BME280;44744;51.894;5.080;2022-08-19T04:52:27;101447.19;;;18.20;73.59
58967;BME280;44744;51.894;5.080;2022-08-19T04:53:29;101447.11;;;18.18;73.54
58967;BME280;44744;51.894;5.080;2022-08-19T04:54:29;101450.79;;;18.17;73.63
58967;BME280;44744;51.894;5.080;2022-08-19T04:55:30;101449.09;;;18.16;73.66
58967;BME280;44744;51.894;5.080;2022-08-19T04:56:30;101451.25;;;18.16;73.67
58967;BME280;44744;51.894;5.080;2022-08-19T04:57:30;101451.42;;;18.15;73.72
58967;BME280;44744;51.894;5.080;2022-08-19T04:58:30;101451.11;;;18.15;73.85
58967;BME280;44744;51.894;5.080;2022-08-19T04:59:31;101449.26;;;18.14;73.68
58967;BME280;44744;51.894;5.080;2022-08-19T05:00:31;101453.42;;;18.13;73.75
58967;BME280;44744;51.894;5.080;2022-08-19T05:01:32;101458.97;;;18.13;73.72
58967;BME280;44744;51.894;5.080;2022-08-19T05:02:33;101460.07;;;18.13;73.69
58967;BME280;44744;51.894;5.080;2022-08-19T05:03:33;101463.17;;;18.12;73.69
58967;BME280;44744;51.894;5.080;2022-08-19T05:04:34;101460.20;;;18.11;73.79
58967;BME280;44744;51.894;5.080;2022-08-19T05:05:39;101463.65;;;18.10;73.78
58967;BME280;44744;51.894;5.080;2022-08-19T05:06:39;101461.98;;;18.08;73.85
58967;BME280;44744;51.894;5.080;2022-08-19T05:07:39;101464.14;;;18.08;73.74
58967;BME280;44744;51.894;5.080;2022-08-19T05:08:41;101462.75;;;18.07;73.79
58967;BME280;44744;51.894;5.080;2022-08-19T05:09:41;101464.81;;;18.07;73.79
58967;BME280;44744;51.894;5.080;2022-08-19T05:10:41;101470.05;;;18.06;73.75
58967;BME280;44744;51.894;5.080;2022-08-19T05:11:43;101473.84;;;18.05;73.89
58967;BME280;44744;51.894;5.080;2022-08-19T05:12:43;101472.40;;;18.06;73.89
58967;BME280;44744;51.894;5.080;2022-08-19T05:13:44;101475.41;;;18.06;73.84
58967;BME280;44744;51.894;5.080;2022-08-19T05:14:45;101477.65;;;18.07;73.87
58967;BME280;44744;51.894;5.080;2022-08-19T05:15:54;101476.21;;;18.07;73.87
58967;BME280;44744;51.894;5.080;2022-08-19T05:16:55;101475.98;;;18.08;73.83
58967;BME280;44744;51.894;5.080;2022-08-19T05:17:55;101477.89;;;18.09;73.87
58967;BME280;44744;51.894;5.080;2022-08-19T05:18:56;101478.23;;;18.09;73.89
58967;BME280;44744;51.894;5.080;2022-08-19T05:19:57;101476.08;;;18.09;73.86
58967;BME280;44744;51.894;5.080;2022-08-19T05:20:58;101478.05;;;18.09;73.89
58967;BME280;44744;51.894;5.080;2022-08-19T05:21:59;101475.79;;;18.08;73.94